Time;durP1;ratioP1;P1;durP2;ratioP2;P2;SDS_P1;SDS_P2;PMS_P1;PMS_P2;Temp;Humidity;BMP_temperature;BMP_pressure;BME280_temperature;BME280_humidity;BME280_pressure;Samples;Min_cycle;Max_cycle;Signal;HPM_P1;HPM_P2
2024/01/26 00:02:10;;;;;;;14.15;5.53;;;4.50;99.90;;;;;;4924526;28;20297;-58
2024/01/26 00:04:35;;;;;;;16.83;5.28;;;4.40;99.90;;;;;;4950931;28;20049;-49
2024/01/26 00:07:01;;;;;;;10.50;4.90;;;4.50;99.90;;;;;;4942389;28;20125;-52
2024/01/26 00:09:26;;;;;;;12.77;5.88;;;4.40;99.90;;;;;;4913039;28;20037;-49
2024/01/26 00:11:52;;;;;;;15.43;5.47;;;4.50;99.90;;;;;;4911199;28;20072;-48
2024/01/26 00:14:17;;;;;;;25.48;7.22;;;4.50;99.90;;;;;;4915517;28;20379;-52
2024/01/26 00:16:43;;;;;;;13.68;4.45;;;4.50;99.90;;;;;;4947373;28;21392;-50
2024/01/26 00:19:09;;;;;;;14.63;4.85;;;4.50;99.90;;;;;;4958350;28;20084;-51
2024/01/26 00:21:36;;;;;;;14.70;5.53;;;4.50;99.90;;;;;;4911062;28;20085;-48
2024/01/26 00:24:02;;;;;;;21.27;6.85;;;4.50;99.90;;;;;;4914307;28;20038;-53
2024/01/26 00:26:27;;;;;;;23.33;5.35;;;4.50;99.90;;;;;;4913353;28;22057;-52
2024/01/26 00:28:53;;;;;;;18.60;5.68;;;4.50;99.90;;;;;;4945443;28;20169;-52
2024/01/26 00:31:18;;;;;;;17.65;5.95;;;4.50;99.90;;;;;;4940178;28;20038;-52
2024/01/26 00:33:45;;;;;;;22.15;5.75;;;4.50;99.90;;;;;;4906609;28;20088;-50
2024/01/26 00:36:12;;;;;;;11.25;4.63;;;4.50;99.90;;;;;;4909402;28;20030;-48
2024/01/26 00:38:38;;;;;;;19.00;5.50;;;4.50;99.90;;;;;;4905836;28;20084;-52
2024/01/26 00:41:04;;;;;;;20.88;6.30;;;4.50;99.90;;;;;;4937788;28;20423;-58
2024/01/26 00:43:30;;;;;;;18.92;5.00;;;4.50;99.90;;;;;;4943656;22;20061;-54
2024/01/26 00:45:55;;;;;;;23.70;5.53;;;4.60;99.90;;;;;;4956616;28;20030;-51
2024/01/26 00:48:21;;;;;;;16.48;6.00;;;4.60;99.90;;;;;;4924854;28;20100;-51
2024/01/26 00:50:50;;;;;;;20.20;5.82;;;4.60;99.90;;;;;;4942080;28;20572;-51
2024/01/26 00:53:16;;;;;;;19.02;7.10;;;4.60;99.90;;;;;;4914887;28;20024;-52
2024/01/26 00:55:42;;;;;;;13.38;5.35;;;4.60;99.90;;;;;;4955196;28;20057;-50
2024/01/26 00:58:07;;;;;;;17.02;5.93;;;4.60;99.90;;;;;;4975829;28;20550;-52
2024/01/26 01:00:33;;;;;;;18.90;6.75;;;4.60;99.90;;;;;;4930185;28;20055;-54
2024/01/26 01:02:58;;;;;;;20.75;7.18;;;4.70;99.90;;;;;;4922509;28;20022;-54
2024/01/26 01:05:24;;;;;;;19.48;7.07;;;4.70;99.90;;;;;;4909999;28;21877;-52
2024/01/26 01:07:50;;;;;;;30.02;8.00;;;4.70;99.90;;;;;;4960277;28;20554;-51
2024/01/26 01:10:15;;;;;;;20.08;8.52;;;4.70;99.90;;;;;;4944531;28;20037;-56
2024/01/26 01:12:42;;;;;;;18.67;9.05;;;4.70;99.90;;;;;;4918243;28;20030;-51
2024/01/26 01:15:11;;;;;;;20.33;8.18;;;4.70;99.90;;;;;;4916322;28;20493;-54
2024/01/26 01:17:41;;;;;;;16.58;6.57;;;4.70;99.90;;;;;;4926440;28;20088;-50
2024/01/26 01:20:10;;;;;;;19.30;5.47;;;4.70;99.90;;;;;;4935806;28;20056;-59
2024/01/26 01:22:36;;;;;;;18.83;6.15;;;4.70;99.90;;;;;;4934534;28;20050;-53
2024/01/26 01:25:06;;;;;;;14.85;6.03;;;4.70;99.90;;;;;;4968839;28;21245;-54
2024/01/26 01:27:32;;;;;;;11.40;5.22;;;4.70;99.90;;;;;;4908862;28;20030;-51
2024/01/26 01:29:58;;;;;;;12.20;5.47;;;4.70;99.90;;;;;;4921795;28;20031;-54
2024/01/26 01:32:24;;;;;;;17.02;5.85;;;4.70;99.90;;;;;;4905693;28;21422;-51
2024/01/26 01:34:49;;;;;;;19.50;6.05;;;4.80;99.90;;;;;;4956852;28;20064;-50
2024/01/26 01:37:15;;;;;;;16.25;6.25;;;4.70;99.90;;;;;;4948754;28;20053;-50
2024/01/26 01:39:40;;;;;;;13.48;5.22;;;4.80;99.90;;;;;;4907392;28;20196;-58
2024/01/26 01:42:13;;;;;;;22.15;5.43;;;4.80;99.90;;;;;;4903254;28;20110;-52
2024/01/26 01:44:43;;;;;;;16.52;5.93;;;4.80;99.90;;;;;;4909392;28;20052;-51
2024/01/26 01:47:10;;;;;;;22.98;7.00;;;4.80;99.90;;;;;;4904102;28;20038;-59
2024/01/26 01:49:39;;;;;;;19.00;6.10;;;4.80;99.90;;;;;;4922127;28;20022;-52
2024/01/26 01:52:07;;;;;;;19.48;6.40;;;4.80;99.90;;;;;;4956028;28;20653;-52
2024/01/26 01:54:33;;;;;;;22.27;6.63;;;4.80;99.90;;;;;;4923295;28;20038;-53
2024/01/26 01:57:02;;;;;;;24.35;5.55;;;4.80;99.90;;;;;;4921388;28;20398;-50
2024/01/26 01:59:28;;;;;;;16.77;6.68;;;4.80;99.90;;;;;;4885702;28;21232;-54
2024/01/26 02:01:54;;;;;;;21.58;6.25;;;4.80;99.90;;;;;;4936434;28;20030;-50
2024/01/26 02:04:20;;;;;;;18.83;6.05;;;4.80;99.90;;;;;;4966570;28;20367;-58
2024/01/26 02:07:03;;;;;;;19.77;7.30;;;4.80;99.90;;;;;;4905944;28;20028;-52
2024/01/26 02:09:28;;;;;;;15.35;6.07;;;4.80;99.90;;;;;;4904253;28;20030;-51
2024/01/26 02:11:55;;;;;;;17.52;6.00;;;4.80;99.90;;;;;;4888832;28;20167;-50
2024/01/26 02:14:21;;;;;;;11.80;5.63;;;4.80;99.90;;;;;;4893212;28;20439;-53
2024/01/26 02:16:57;;;;;;;17.17;5.90;;;4.80;99.90;;;;;;4932786;28;21503;-50
2024/01/26 02:19:24;;;;;;;20.05;6.30;;;4.80;99.90;;;;;;4913989;28;20034;-59
2024/01/26 02:21:49;;;;;;;20.30;5.45;;;4.80;99.90;;;;;;4918015;28;20024;-51
2024/01/26 02:24:15;;;;;;;20.35;5.90;;;4.90;99.90;;;;;;4901838;28;20034;-50
2024/01/26 02:26:42;;;;;;;23.05;7.15;;;4.80;99.90;;;;;;4880616;28;20749;-51
2024/01/26 02:29:08;;;;;;;15.75;6.72;;;4.80;99.90;;;;;;4921769;28;20038;-57
2024/01/26 02:31:33;;;;;;;16.23;5.93;;;4.80;99.90;;;;;;4931959;28;20026;-52
2024/01/26 02:34:02;;;;;;;19.90;7.13;;;4.80;99.90;;;;;;4969568;28;20037;-53
2024/01/26 02:36:28;;;;;;;17.92;6.53;;;4.90;99.90;;;;;;4930309;28;20038;-51
2024/01/26 02:38:54;;;;;;;20.13;7.40;;;4.80;99.90;;;;;;4895680;28;20513;-52
2024/01/26 02:41:20;;;;;;;15.55;6.38;;;4.90;99.90;;;;;;4946329;28;20065;-54
2024/01/26 02:43:45;;;;;;;19.00;6.80;;;4.90;99.90;;;;;;4940144;28;21818;-53
2024/01/26 02:46:11;;;;;;;23.60;7.35;;;4.90;99.90;;;;;;4958099;28;20038;-51
2024/01/26 02:48:38;;;;;;;15.25;5.68;;;4.90;99.90;;;;;;4912417;28;20121;-49
2024/01/26 02:51:04;;;;;;;17.70;6.22;;;4.90;99.90;;;;;;4907789;28;20068;-53
2024/01/26 02:53:30;;;;;;;19.23;6.47;;;4.90;99.90;;;;;;4871814;28;20726;-51
2024/01/26 02:55:55;;;;;;;22.13;6.75;;;4.90;99.90;;;;;;4940695;28;20114;-50
2024/01/26 02:58:21;;;;;;;18.45;6.50;;;4.90;99.90;;;;;;4934406;28;20033;-58
2024/01/26 03:00:47;;;;;;;21.23;7.50;;;4.90;99.90;;;;;;4907388;28;20049;-50
2024/01/26 03:03:13;;;;;;;13.65;6.70;;;4.90;99.90;;;;;;4914831;28;20502;-53
2024/01/26 03:05:38;;;;;;;27.75;8.05;;;5.00;99.90;;;;;;4936969;28;20034;-54
2024/01/26 03:08:05;;;;;;;19.40;7.80;;;5.00;99.90;;;;;;4933376;28;20429;-58
2024/01/26 03:10:31;;;;;;;20.10;6.18;;;5.00;99.90;;;;;;4942633;28;20504;-55
2024/01/26 03:12:56;;;;;;;19.33;7.80;;;5.00;99.90;;;;;;4924506;28;20064;-50
2024/01/26 03:15:22;;;;;;;15.20;6.57;;;5.00;99.90;;;;;;4897031;28;20027;-52
2024/01/26 03:17:47;;;;;;;27.38;8.02;;;5.10;99.90;;;;;;4921387;28;20045;-52
2024/01/26 03:20:14;;;;;;;23.70;8.60;;;5.10;99.90;;;;;;4901283;28;20033;-51
2024/01/26 03:22:39;;;;;;;22.88;7.45;;;5.10;99.90;;;;;;4927285;28;21497;-51
2024/01/26 03:25:06;;;;;;;25.35;9.32;;;5.10;99.90;;;;;;4936448;28;20120;-50
2024/01/26 03:27:31;;;;;;;23.77;8.38;;;5.20;99.90;;;;;;4876603;28;20030;-52
2024/01/26 03:29:57;;;;;;;24.00;8.40;;;5.20;99.90;;;;;;4901732;28;20056;-52
2024/01/26 03:32:22;;;;;;;25.02;9.38;;;5.20;99.90;;;;;;4903425;28;20423;-53
2024/01/26 03:34:48;;;;;;;23.05;9.35;;;5.20;99.90;;;;;;4933575;28;21703;-52
2024/01/26 03:37:13;;;;;;;22.52;8.93;;;5.20;99.90;;;;;;4975373;28;20131;-50
2024/01/26 03:39:39;;;;;;;19.10;7.93;;;5.20;99.90;;;;;;4884255;28;20045;-51
2024/01/26 03:42:05;;;;;;;19.10;7.63;;;5.20;99.90;;;;;;4914271;28;20038;-53
2024/01/26 03:44:32;;;;;;;15.55;7.53;;;5.20;99.90;;;;;;4931477;28;20029;-51
2024/01/26 03:46:57;;;;;;;19.27;7.53;;;5.20;99.90;;;;;;4917922;28;20607;-52
2024/01/26 03:49:23;;;;;;;22.92;8.65;;;5.20;99.90;;;;;;4946124;28;20033;-59
2024/01/26 03:51:49;;;;;;;20.23;7.97;;;5.20;99.90;;;;;;4930491;28;20037;-51
2024/01/26 03:54:14;;;;;;;28.17;9.50;;;5.30;99.90;;;;;;4935547;28;20045;-55
2024/01/26 03:56:40;;;;;;;20.25;9.65;;;5.30;99.90;;;;;;4924823;28;20041;-55
2024/01/26 03:59:05;;;;;;;23.40;9.98;;;5.30;99.90;;;;;;4932397;28;20049;-55
2024/01/26 04:01:31;;;;;;;20.45;9.60;;;5.30;99.90;;;;;;4907607;28;20054;-60
2024/01/26 04:03:57;;;;;;;25.08;10.05;;;5.30;99.90;;;;;;4947573;28;20076;-54
2024/01/26 04:06:23;;;;;;;21.50;8.93;;;5.40;99.90;;;;;;4928386;28;20514;-52
2024/01/26 04:08:49;;;;;;;23.33;9.75;;;5.40;99.90;;;;;;4925149;28;20029;-54
2024/01/26 04:11:15;;;;;;;19.10;9.68;;;5.40;99.90;;;;;;4899106;28;20410;-54
2024/01/26 04:13:40;;;;;;;25.23;9.10;;;5.50;99.90;;;;;;4921593;28;21574;-54
2024/01/26 04:16:09;;;;;;;22.45;9.50;;;5.40;99.90;;;;;;4977816;28;20033;-53
2024/01/26 04:18:34;;;;;;;26.63;8.80;;;5.50;99.90;;;;;;4917888;28;20034;-51
2024/01/26 04:21:00;;;;;;;17.20;8.07;;;5.50;99.90;;;;;;4917611;28;20085;-54
2024/01/26 04:23:25;;;;;;;21.10;8.80;;;5.50;99.90;;;;;;4908489;28;20410;-51
2024/01/26 04:25:51;;;;;;;20.13;8.38;;;5.50;99.90;;;;;;4881825;28;21977;-52
2024/01/26 04:28:17;;;;;;;21.35;9.48;;;5.50;99.90;;;;;;4950111;28;20103;-52
2024/01/26 04:30:43;;;;;;;24.40;9.57;;;5.50;99.90;;;;;;4970434;28;20506;-59
2024/01/26 04:33:08;;;;;;;23.83;9.10;;;5.50;99.90;;;;;;4973792;28;20409;-51
2024/01/26 04:35:35;;;;;;;23.02;8.77;;;5.60;99.90;;;;;;4985605;28;20116;-52
2024/01/26 04:38:00;;;;;;;22.35;9.73;;;5.60;99.90;;;;;;4968396;28;20038;-51
2024/01/26 04:40:26;;;;;;;19.13;8.98;;;5.60;99.90;;;;;;4951836;28;20116;-51
2024/01/26 04:42:51;;;;;;;21.52;8.73;;;5.60;99.90;;;;;;4967772;28;20040;-51
2024/01/26 04:45:17;;;;;;;17.52;9.15;;;5.60;99.90;;;;;;4973440;28;20034;-54
2024/01/26 04:47:43;;;;;;;24.98;11.55;;;5.60;99.90;;;;;;4983648;28;20045;-51
2024/01/26 04:50:09;;;;;;;20.73;9.98;;;5.60;99.90;;;;;;4984603;28;20043;-50
2024/01/26 04:52:35;;;;;;;24.08;9.68;;;5.70;99.90;;;;;;4956748;28;20034;-52
2024/01/26 04:55:00;;;;;;;21.58;9.57;;;5.70;99.90;;;;;;4969247;28;20107;-50
2024/01/26 04:57:26;;;;;;;23.92;9.88;;;5.70;99.90;;;;;;4965375;28;22444;-52
2024/01/26 04:59:52;;;;;;;18.95;8.93;;;5.70;99.90;;;;;;4979554;28;20030;-51
2024/01/26 05:02:17;;;;;;;19.40;10.38;;;5.70;99.90;;;;;;4967370;28;20578;-55
2024/01/26 05:04:43;;;;;;;21.00;9.60;;;5.70;99.90;;;;;;4952443;28;20029;-53
2024/01/26 05:07:08;;;;;;;26.25;10.73;;;5.70;99.90;;;;;;4961652;28;20033;-50
2024/01/26 05:09:34;;;;;;;19.52;10.32;;;5.80;99.90;;;;;;4962302;28;20065;-51
2024/01/26 05:11:59;;;;;;;19.83;10.30;;;5.80;99.90;;;;;;4979146;28;20034;-54
2024/01/26 05:14:25;;;;;;;22.90;10.55;;;5.80;99.90;;;;;;4963660;28;20045;-51
2024/01/26 05:16:51;;;;;;;24.95;11.27;;;5.80;99.90;;;;;;4971621;28;20137;-50
2024/01/26 05:19:16;;;;;;;20.27;10.25;;;5.80;99.90;;;;;;4946746;28;20056;-55
2024/01/26 05:21:42;;;;;;;22.73;10.77;;;5.80;99.90;;;;;;4957159;28;20052;-52
2024/01/26 05:24:07;;;;;;;18.35;10.30;;;5.80;99.90;;;;;;4960650;28;20018;-59
2024/01/26 05:26:37;;;;;;;23.58;10.70;;;5.90;99.90;;;;;;4976699;28;20517;-57
2024/01/26 05:29:03;;;;;;;25.85;10.85;;;5.90;99.90;;;;;;4977254;28;20660;-51
2024/01/26 05:31:28;;;;;;;26.65;12.30;;;5.90;99.90;;;;;;4950731;28;20032;-50
2024/01/26 05:33:54;;;;;;;24.58;10.35;;;5.90;99.90;;;;;;4956909;28;20034;-52
2024/01/26 05:36:20;;;;;;;21.92;10.88;;;5.90;99.90;;;;;;4956233;28;20109;-53
2024/01/26 05:38:45;;;;;;;18.85;10.00;;;5.90;99.90;;;;;;4972203;28;20040;-53
2024/01/26 05:41:12;;;;;;;23.35;11.23;;;5.90;99.90;;;;;;4977103;28;20022;-51
2024/01/26 05:43:39;;;;;;;27.38;11.77;;;6.00;99.90;;;;;;4949254;28;20234;-50
2024/01/26 05:46:05;;;;;;;25.70;11.50;;;6.00;99.90;;;;;;4953594;28;20054;-53
2024/01/26 05:48:31;;;;;;;19.52;10.80;;;6.00;99.90;;;;;;4955483;28;20109;-51
2024/01/26 05:50:56;;;;;;;21.27;12.13;;;6.00;99.90;;;;;;4977241;28;20026;-51
2024/01/26 05:53:22;;;;;;;29.73;12.18;;;6.10;99.90;;;;;;4959805;28;20458;-59
2024/01/26 05:55:48;;;;;;;23.20;10.95;;;6.10;99.90;;;;;;4970447;28;20029;-51
2024/01/26 05:58:16;;;;;;;22.88;12.10;;;6.10;99.90;;;;;;4947781;28;20030;-52
2024/01/26 06:00:42;;;;;;;23.42;12.38;;;6.10;99.90;;;;;;4954588;28;20121;-50
2024/01/26 06:03:07;;;;;;;29.20;12.23;;;6.10;99.90;;;;;;4961751;28;20109;-58
2024/01/26 06:05:33;;;;;;;23.58;12.45;;;6.20;99.90;;;;;;4964836;28;20026;-50
2024/01/26 06:07:59;;;;;;;22.15;12.18;;;6.20;99.90;;;;;;4973541;28;20026;-51
2024/01/26 06:10:24;;;;;;;26.58;12.02;;;6.20;99.90;;;;;;4957180;28;20025;-52
2024/01/26 06:12:50;;;;;;;23.90;11.63;;;6.30;99.90;;;;;;4950049;28;20022;-52
2024/01/26 06:15:16;;;;;;;22.35;11.55;;;6.30;99.90;;;;;;4956159;28;20517;-50
2024/01/26 06:17:41;;;;;;;24.92;11.40;;;6.30;99.90;;;;;;4958718;28;21432;-52
2024/01/26 06:20:07;;;;;;;19.98;12.15;;;6.40;99.90;;;;;;4960293;28;20033;-51
2024/01/26 06:22:33;;;;;;;29.45;12.18;;;6.30;99.90;;;;;;4923025;28;20046;-51
2024/01/26 06:24:59;;;;;;;28.95;12.20;;;6.40;99.90;;;;;;4946381;28;20080;-50
2024/01/26 06:27:24;;;;;;;28.20;12.05;;;6.40;99.90;;;;;;4944137;28;21093;-54
2024/01/26 06:29:50;;;;;;;30.35;13.02;;;6.40;99.90;;;;;;4961376;28;20036;-51
2024/01/26 06:32:18;;;;;;;22.63;12.00;;;6.40;99.90;;;;;;4963584;28;20026;-51
2024/01/26 06:34:45;;;;;;;34.55;13.30;;;6.40;99.90;;;;;;4938615;28;20030;-50
2024/01/26 06:37:11;;;;;;;23.58;12.18;;;6.50;99.90;;;;;;4952099;28;20022;-50
2024/01/26 06:39:37;;;;;;;31.17;14.02;;;6.50;99.90;;;;;;4939280;28;20108;-51
2024/01/26 06:42:03;;;;;;;26.80;13.52;;;6.50;99.90;;;;;;4971326;28;20510;-53
2024/01/26 06:44:28;;;;;;;20.55;12.32;;;6.60;99.90;;;;;;4938348;28;20323;-53
2024/01/26 06:46:54;;;;;;;31.58;13.70;;;6.60;99.90;;;;;;4967029;28;20166;-52
2024/01/26 06:49:19;;;;;;;29.60;13.80;;;6.60;99.90;;;;;;4936559;28;20152;-55
2024/01/26 06:51:45;;;;;;;25.75;12.82;;;6.60;99.90;;;;;;4936761;28;20045;-50
2024/01/26 06:54:10;;;;;;;32.42;13.90;;;6.60;99.90;;;;;;4940684;28;20041;-57
2024/01/26 06:56:36;;;;;;;29.08;13.00;;;6.70;99.90;;;;;;4962558;28;20025;-49
2024/01/26 06:59:02;;;;;;;29.40;13.32;;;6.70;99.90;;;;;;4966759;28;20037;-52
2024/01/26 07:01:27;;;;;;;28.00;13.50;;;6.70;99.90;;;;;;4932617;28;20605;-51
2024/01/26 07:03:53;;;;;;;25.33;12.10;;;6.70;99.90;;;;;;4936738;28;20025;-51
2024/01/26 07:06:18;;;;;;;34.08;14.55;;;6.70;99.90;;;;;;4927188;28;21069;-52
2024/01/26 07:08:44;;;;;;;28.80;15.73;;;6.70;99.90;;;;;;4957941;28;22332;-58
2024/01/26 07:11:18;;;;;;;28.58;15.52;;;6.80;99.90;;;;;;4961504;28;20029;-52
2024/01/26 07:13:43;;;;;;;27.15;14.70;;;6.90;99.90;;;;;;4926555;28;20017;-52
2024/01/26 07:16:09;;;;;;;27.52;14.77;;;6.90;99.90;;;;;;4939075;28;20486;-51
2024/01/26 07:18:34;;;;;;;30.73;14.20;;;7.00;99.90;;;;;;4928714;28;20030;-52
2024/01/26 07:21:06;;;;;;;30.92;14.95;;;7.00;99.90;;;;;;4957279;28;20033;-54
2024/01/26 07:23:32;;;;;;;31.77;15.77;;;7.00;99.90;;;;;;4935311;28;20504;-54
2024/01/26 07:25:58;;;;;;;32.33;15.35;;;7.00;99.90;;;;;;4964382;28;20128;-53
2024/01/26 07:28:23;;;;;;;29.67;15.60;;;7.00;99.90;;;;;;4944084;28;20037;-53
2024/01/26 07:30:50;;;;;;;31.70;17.20;;;7.10;99.90;;;;;;4945565;28;20034;-51
2024/01/26 07:33:15;;;;;;;28.38;15.80;;;7.10;99.90;;;;;;4930457;28;20029;-51
2024/01/26 07:35:41;;;;;;;32.35;16.85;;;7.20;99.90;;;;;;4948630;28;21538;-53
2024/01/26 07:38:06;;;;;;;28.95;16.30;;;7.20;99.90;;;;;;4958333;28;20523;-54
2024/01/26 07:40:32;;;;;;;30.75;16.58;;;7.30;99.90;;;;;;4944292;28;20064;-51
2024/01/26 07:42:57;;;;;;;33.97;15.70;;;7.30;99.90;;;;;;4924881;28;20437;-51
2024/01/26 07:45:23;;;;;;;31.55;16.38;;;7.40;99.90;;;;;;4939315;28;20128;-49
2024/01/26 07:47:48;;;;;;;36.05;16.77;;;7.40;99.90;;;;;;4943619;28;20056;-54
2024/01/26 07:50:14;;;;;;;34.10;16.90;;;7.40;99.90;;;;;;4965645;28;20022;-53
2024/01/26 07:52:40;;;;;;;29.98;18.15;;;7.50;99.90;;;;;;4933533;28;20037;-49
2024/01/26 07:55:05;;;;;;;32.50;17.48;;;7.50;99.90;;;;;;4915963;28;20026;-53
2024/01/26 07:57:31;;;;;;;34.47;18.48;;;7.60;99.90;;;;;;4913744;28;20040;-49
2024/01/26 07:59:57;;;;;;;33.80;18.70;;;7.70;99.90;;;;;;4951275;28;20025;-52
2024/01/26 08:02:22;;;;;;;32.40;17.52;;;7.70;99.90;;;;;;4954348;28;20054;-59
2024/01/26 08:04:48;;;;;;;31.75;17.40;;;7.70;99.90;;;;;;4913463;28;20562;-53
2024/01/26 08:07:15;;;;;;;32.80;18.77;;;7.70;99.90;;;;;;4931916;28;20037;-51
2024/01/26 08:09:42;;;;;;;34.17;17.67;;;7.70;99.90;;;;;;4893603;28;20116;-53
2024/01/26 08:12:08;;;;;;;32.15;16.98;;;7.80;99.90;;;;;;4927335;28;20025;-59
2024/01/26 08:14:33;;;;;;;32.58;17.58;;;7.80;99.90;;;;;;4949109;28;20022;-51
2024/01/26 08:16:59;;;;;;;29.83;18.67;;;7.90;99.90;;;;;;4955721;28;20148;-51
2024/01/26 08:19:24;;;;;;;30.40;16.88;;;7.90;99.90;;;;;;4907924;28;20030;-55
2024/01/26 08:21:50;;;;;;;30.52;18.08;;;7.90;99.90;;;;;;4924833;28;20029;-50
2024/01/26 08:24:16;;;;;;;28.02;16.67;;;8.00;99.90;;;;;;4907491;28;20026;-50
2024/01/26 08:26:41;;;;;;;35.70;17.65;;;8.00;99.90;;;;;;4924179;28;21397;-52
2024/01/26 08:29:07;;;;;;;25.40;15.27;;;8.10;99.90;;;;;;4941681;28;20041;-51
2024/01/26 08:31:34;;;;;;;28.52;16.60;;;8.10;99.90;;;;;;4905836;28;20029;-56
2024/01/26 08:33:59;;;;;;;30.92;16.27;;;8.20;99.90;;;;;;4884046;28;20774;-51
2024/01/26 08:36:25;;;;;;;29.38;16.50;;;8.20;99.90;;;;;;4875787;28;21481;-52
2024/01/26 08:38:53;;;;;;;30.98;17.52;;;8.20;99.90;;;;;;4943436;28;20056;-51
2024/01/26 08:41:18;;;;;;;26.92;15.25;;;8.30;99.90;;;;;;4948834;28;20437;-53
2024/01/26 08:43:44;;;;;;;31.33;16.92;;;8.30;99.90;;;;;;4885742;28;20033;-52
2024/01/26 08:46:10;;;;;;;29.48;16.17;;;8.30;99.90;;;;;;4901802;28;20132;-52
2024/01/26 08:48:35;;;;;;;29.13;15.55;;;8.40;99.90;;;;;;4895155;28;21567;-53
2024/01/26 08:51:02;;;;;;;24.45;15.32;;;8.40;99.90;;;;;;4945945;28;20037;-50
2024/01/26 08:53:28;;;;;;;28.77;15.18;;;8.40;99.90;;;;;;4885182;28;20029;-59
2024/01/26 08:55:53;;;;;;;30.40;15.07;;;8.40;99.90;;;;;;4923656;28;20115;-51
2024/01/26 08:58:19;;;;;;;22.40;14.38;;;8.40;99.90;;;;;;4894025;28;20038;-56
2024/01/26 09:00:45;;;;;;;25.08;15.20;;;8.40;99.90;;;;;;4895999;28;20049;-52
2024/01/26 09:03:11;;;;;;;28.67;15.55;;;8.40;99.90;;;;;;4914786;28;20114;-61
2024/01/26 09:05:36;;;;;;;29.02;18.17;;;8.40;99.90;;;;;;4923672;28;20666;-56
2024/01/26 09:08:03;;;;;;;22.63;13.10;;;8.40;99.90;;;;;;4950260;28;20029;-55
2024/01/26 09:10:28;;;;;;;21.67;13.05;;;8.50;99.90;;;;;;4892621;28;20037;-53
2024/01/26 09:12:54;;;;;;;19.55;13.55;;;8.40;99.90;;;;;;4883846;28;20064;-57
2024/01/26 09:15:19;;;;;;;22.77;13.90;;;8.50;99.90;;;;;;4864913;28;20069;-53
2024/01/26 09:17:45;;;;;;;20.08;12.68;;;8.50;99.90;;;;;;4938540;28;21191;-56
2024/01/26 09:20:11;;;;;;;18.92;12.02;;;8.50;99.90;;;;;;4943245;28;20102;-61
2024/01/26 09:22:36;;;;;;;27.83;14.95;;;8.50;99.90;;;;;;4889105;28;20075;-59
2024/01/26 09:25:02;;;;;;;25.88;13.35;;;8.50;99.90;;;;;;4878124;28;20026;-56
2024/01/26 09:27:28;;;;;;;20.52;13.25;;;8.50;99.90;;;;;;4847642;28;21671;-55
2024/01/26 09:29:53;;;;;;;23.95;13.48;;;8.50;99.90;;;;;;4945870;28;20560;-55
2024/01/26 09:32:19;;;;;;;22.80;14.32;;;8.50;99.90;;;;;;4917302;28;20038;-55
2024/01/26 09:34:44;;;;;;;24.45;14.98;;;8.50;99.90;;;;;;4883339;28;20033;-59
2024/01/26 09:37:10;;;;;;;27.70;16.02;;;8.60;99.90;;;;;;4884646;28;20450;-56
2024/01/26 09:39:36;;;;;;;21.17;14.13;;;8.60;99.90;;;;;;4866229;28;21392;-57
2024/01/26 09:42:02;;;;;;;20.42;13.30;;;8.60;99.90;;;;;;4913578;28;20046;-58
2024/01/26 09:44:27;;;;;;;21.88;12.88;;;8.60;99.90;;;;;;4896267;28;20041;-61
2024/01/26 09:46:54;;;;;;;17.38;11.13;;;8.60;99.90;;;;;;4934246;28;20037;-54
2024/01/26 09:49:21;;;;;;;18.30;11.38;;;8.60;99.90;;;;;;4880970;28;20065;-55
2024/01/26 09:51:47;;;;;;;16.70;10.65;;;8.60;99.90;;;;;;4879346;28;20038;-57
2024/01/26 09:54:15;;;;;;;16.95;10.50;;;8.70;99.90;;;;;;4876013;28;20084;-61
2024/01/26 09:56:42;;;;;;;19.15;10.98;;;8.70;99.90;;;;;;4922761;28;20034;-58
2024/01/26 09:59:09;;;;;;;14.95;9.60;;;8.70;99.90;;;;;;4934183;28;20022;-54
2024/01/26 10:01:35;;;;;;;17.23;9.77;;;8.70;99.90;;;;;;4876354;28;20021;-54
2024/01/26 10:04:02;;;;;;;16.05;10.77;;;8.70;99.90;;;;;;4870280;28;20555;-56
2024/01/26 10:06:27;;;;;;;13.55;9.48;;;8.70;99.90;;;;;;4882437;28;22327;-57
2024/01/26 10:08:53;;;;;;;14.38;8.88;;;8.80;99.90;;;;;;4927985;28;21640;-56
2024/01/26 10:11:19;;;;;;;14.57;9.18;;;8.80;99.90;;;;;;4951806;28;20030;-56
2024/01/26 10:13:44;;;;;;;15.75;10.32;;;8.80;99.90;;;;;;4906227;28;20034;-52
2024/01/26 10:16:12;;;;;;;16.10;10.15;;;8.80;99.90;;;;;;4872894;28;20042;-53
2024/01/26 10:18:39;;;;;;;15.55;10.15;;;8.80;99.90;;;;;;4866856;28;22445;-54
2024/01/26 10:21:05;;;;;;;13.43;9.77;;;8.90;99.90;;;;;;4935920;28;20113;-54
2024/01/26 10:23:30;;;;;;;16.17;10.13;;;8.90;99.90;;;;;;4887563;28;20033;-61
2024/01/26 10:25:56;;;;;;;13.30;10.48;;;8.90;99.90;;;;;;4919862;28;20519;-54
2024/01/26 10:28:22;;;;;;;13.20;9.32;;;8.90;99.90;;;;;;4873834;28;20112;-55
2024/01/26 10:30:47;;;;;;;14.70;9.80;;;8.90;99.90;;;;;;4874189;28;20085;-57
2024/01/26 10:33:14;;;;;;;15.35;9.13;;;8.90;99.90;;;;;;4900260;28;20049;-60
2024/01/26 10:35:45;;;;;;;12.38;9.07;;;9.00;99.90;;;;;;4898728;28;20508;-57
2024/01/26 10:38:13;;;;;;;14.70;9.40;;;9.10;99.90;;;;;;4914993;28;20038;-55
2024/01/26 10:40:44;;;;;;;17.23;11.43;;;9.10;99.90;;;;;;4918832;28;20129;-54
2024/01/26 10:43:12;;;;;;;17.50;11.90;;;9.10;99.90;;;;;;4963492;28;20482;-52
2024/01/26 10:45:38;;;;;;;17.33;10.60;;;9.10;99.90;;;;;;4929479;28;20627;-54
2024/01/26 10:48:06;;;;;;;18.90;12.35;;;9.10;99.90;;;;;;4916947;28;20030;-57
2024/01/26 10:50:32;;;;;;;12.02;9.10;;;9.10;99.90;;;;;;4990505;28;20052;-56
2024/01/26 10:52:58;;;;;;;14.32;10.15;;;9.20;99.90;;;;;;4971776;28;20029;-56
2024/01/26 10:55:25;;;;;;;16.75;9.77;;;9.20;99.90;;;;;;4983888;28;20116;-55
2024/01/26 10:57:51;;;;;;;13.63;10.32;;;9.20;99.90;;;;;;4977341;28;20571;-55
2024/01/26 11:00:17;;;;;;;13.48;11.95;;;9.20;99.90;;;;;;4931671;28;20031;-58
2024/01/26 11:02:44;;;;;;;10.15;8.10;;;9.30;99.90;;;;;;4932570;28;20033;-55
2024/01/26 11:05:11;;;;;;;9.45;7.60;;;9.30;99.90;;;;;;4966798;28;20020;-57
2024/01/26 11:07:39;;;;;;;12.50;8.23;;;9.40;99.90;;;;;;4975629;28;20048;-56
2024/01/26 11:10:10;;;;;;;9.15;6.43;;;9.40;99.90;;;;;;4974860;28;20065;-55
2024/01/26 11:12:37;;;;;;;7.88;6.35;;;9.40;99.90;;;;;;4980789;28;20128;-57
2024/01/26 11:15:08;;;;;;;8.63;6.68;;;9.40;99.90;;;;;;4976123;28;20616;-57
2024/01/26 11:17:54;;;;;;;7.60;6.00;;;9.40;99.90;;;;;;4930075;28;20077;-57
2024/01/26 11:20:26;;;;;;;7.70;5.70;;;9.40;99.90;;;;;;4967042;28;20018;-57
2024/01/26 11:23:01;;;;;;;7.30;5.88;;;9.50;99.90;;;;;;4973407;28;20786;-58
2024/01/26 11:25:31;;;;;;;7.97;5.65;;;9.50;99.90;;;;;;4970678;28;21653;-59
2024/01/26 11:28:01;;;;;;;8.30;5.68;;;9.50;99.90;;;;;;4983611;28;20026;-54
2024/01/26 11:30:28;;;;;;;7.15;5.40;;;9.50;99.90;;;;;;4952010;28;20028;-57
2024/01/26 11:32:54;;;;;;;6.10;5.03;;;9.60;99.90;;;;;;4980455;28;20053;-54
2024/01/26 11:35:20;;;;;;;7.43;5.20;;;9.60;99.90;;;;;;4953997;28;20049;-57
2024/01/26 11:37:47;;;;;;;5.97;4.53;;;9.60;99.90;;;;;;4965433;28;20088;-55
2024/01/26 11:40:14;;;;;;;4.97;4.03;;;9.70;99.90;;;;;;4966565;28;20033;-59
2024/01/26 11:42:40;;;;;;;4.63;3.47;;;9.70;99.90;;;;;;4969650;28;20025;-58
2024/01/26 11:45:12;;;;;;;3.30;1.92;;;9.60;99.90;;;;;;4964186;28;20026;-57
2024/01/26 11:47:39;;;;;;;2.65;1.67;;;9.60;99.90;;;;;;4934275;28;20029;-56
2024/01/26 11:50:08;;;;;;;3.97;1.73;;;9.40;99.90;;;;;;4943759;28;20034;-56
2024/01/26 11:52:38;;;;;;;1.27;0.90;;;9.40;99.90;;;;;;4960444;28;20038;-60
2024/01/26 11:55:05;;;;;;;6.75;2.03;;;9.40;99.90;;;;;;4979064;28;20026;-54
2024/01/26 11:57:35;;;;;;;5.10;1.60;;;9.30;99.90;;;;;;4961824;28;20030;-57
2024/01/26 12:00:10;;;;;;;8.13;1.77;;;9.20;99.90;;;;;;4979984;28;20076;-56
2024/01/26 12:02:36;;;;;;;4.70;1.85;;;9.20;99.90;;;;;;4945296;28;20022;-54
2024/01/26 12:05:02;;;;;;;10.55;1.85;;;9.10;99.90;;;;;;4957384;28;20033;-55
2024/01/26 12:07:27;;;;;;;10.00;2.90;;;9.10;99.90;;;;;;4955204;28;22017;-56
2024/01/26 12:09:53;;;;;;;17.55;3.00;;;9.00;99.90;;;;;;4971609;28;20165;-55
2024/01/26 12:12:19;;;;;;;12.45;2.47;;;8.90;99.90;;;;;;4953927;28;22167;-56
2024/01/26 12:14:45;;;;;;;14.35;2.80;;;8.80;99.90;;;;;;4953951;28;20430;-55
2024/01/26 12:17:10;;;;;;;15.07;2.38;;;8.80;99.90;;;;;;4879614;28;21566;-54
2024/01/26 12:19:37;;;;;;;8.48;2.55;;;8.70;99.90;;;;;;4953523;28;20646;-56
2024/01/26 12:22:06;;;;;;;8.85;2.60;;;8.60;99.90;;;;;;4969003;28;20048;-57
2024/01/26 12:24:34;;;;;;;12.18;2.65;;;8.60;99.90;;;;;;4931016;28;20083;-55
2024/01/26 12:27:03;;;;;;;11.63;2.47;;;8.50;99.90;;;;;;4978211;28;20037;-56
2024/01/26 12:29:29;;;;;;;9.57;3.10;;;8.50;99.90;;;;;;4909385;28;20384;-56
2024/01/26 12:32:08;;;;;;;9.98;2.50;;;8.40;99.90;;;;;;4948113;28;20084;-55
2024/01/26 12:34:36;;;;;;;13.88;2.78;;;8.30;99.90;;;;;;4949151;28;20030;-54
2024/01/26 12:37:04;;;;;;;11.60;2.08;;;8.20;99.90;;;;;;4947142;28;20069;-52
2024/01/26 12:39:30;;;;;;;11.70;2.25;;;8.20;99.90;;;;;;4923369;28;20033;-52